Time;durP1;ratioP1;P1;durP2;ratioP2;P2;SDS_P1;SDS_P2;PMS_P1;PMS_P2;Temp;Humidity;BMP_temperature;BMP_pressure;BME280_temperature;BME280_humidity;BME280_pressure;Samples;Min_cycle;Max_cycle;Signal;HPM_P1;HPM_P2
2022/03/14 00:02:09;;;;;;;6.68;4.00;;;;;;;-0.75;57.92;97773.69;5113987;28;20114;-67
2022/03/14 00:04:36;;;;;;;6.50;4.00;;;;;;;-0.80;58.66;97770.97;5113950;28;20020;-67
2022/03/14 00:07:01;;;;;;;10.50;4.70;;;;;;;-0.82;58.61;97780.34;5113737;28;20034;-67
2022/03/14 00:09:27;;;;;;;7.28;4.85;;;;;;;-0.86;58.43;97775.94;5113816;28;20020;-66
2022/03/14 00:11:54;;;;;;;8.35;4.90;;;;;;;-0.89;58.54;97776.75;5113761;28;20020;-66
2022/03/14 00:14:20;;;;;;;5.78;3.70;;;;;;;-0.82;59.83;97782.91;5113707;28;20034;-67
2022/03/14 00:16:46;;;;;;;4.78;3.20;;;;;;;-0.83;60.57;97778.59;5113638;28;20015;-67
2022/03/14 00:19:14;;;;;;;6.53;4.45;;;;;;;-0.87;61.48;97785.38;5113541;28;20040;-65
2022/03/14 00:21:41;;;;;;;6.00;3.90;;;;;;;-0.84;61.06;97782.00;5113353;28;20044;-69
2022/03/14 00:24:09;;;;;;;6.70;3.25;;;;;;;-0.79;60.90;97783.88;5112134;28;20084;-67
2022/03/14 00:26:35;;;;;;;5.03;3.53;;;;;;;-0.79;60.10;97783.88;5113519;28;20027;-67
2022/03/14 00:29:03;;;;;;;5.75;3.13;;;;;;;-0.80;59.94;97788.97;5113485;28;20140;-67
2022/03/14 00:31:29;;;;;;;6.85;4.03;;;;;;;-0.80;60.06;97784.72;5113503;28;20385;-68
2022/03/14 00:33:55;;;;;;;8.10;4.10;;;;;;;-0.75;60.10;97786.53;5113528;28;20457;-66
2022/03/14 00:36:20;;;;;;;6.20;3.72;;;;;;;-0.78;60.08;97788.19;5113458;28;20030;-68
2022/03/14 00:38:46;;;;;;;7.50;3.47;;;;;;;-0.79;60.19;97798.41;5113485;28;20083;-69
2022/03/14 00:41:12;;;;;;;5.30;3.10;;;;;;;-0.79;60.49;97790.72;5113344;28;20020;-67
2022/03/14 00:43:38;;;;;;;6.55;3.45;;;;;;;-0.80;60.87;97783.84;5113611;28;20023;-65
2022/03/14 00:46:04;;;;;;;6.43;3.58;;;;;;;-0.75;61.00;97791.69;5113253;28;20366;-67
2022/03/14 00:48:35;;;;;;;5.10;3.67;;;;;;;-0.75;60.79;97789.09;5113295;28;20453;-66
2022/03/14 00:51:02;;;;;;;4.75;3.17;;;;;;;-0.75;60.30;97791.69;5113389;28;20431;-67
2022/03/14 00:53:29;;;;;;;6.07;3.42;;;;;;;-0.81;60.21;97782.94;5113185;28;20030;-69
2022/03/14 00:55:54;;;;;;;6.57;3.72;;;;;;;-0.72;60.67;97796.91;5113202;28;20027;-66
2022/03/14 00:58:20;;;;;;;5.68;3.17;;;;;;;-0.71;60.47;97790.91;5113145;28;20042;-67
2022/03/14 01:00:48;;;;;;;4.78;3.40;;;;;;;-0.74;60.79;97796.84;5113287;28;20016;-66
2022/03/14 01:03:14;;;;;;;8.30;3.95;;;;;;;-0.76;61.08;97795.94;5113320;28;20110;-68
2022/03/14 01:05:40;;;;;;;6.05;3.42;;;;;;;-0.74;60.88;97794.28;5113213;28;20098;-67
2022/03/14 01:08:06;;;;;;;5.88;3.35;;;;;;;-0.78;60.78;97790.75;5113078;28;20020;-67
2022/03/14 01:10:32;;;;;;;5.82;3.70;;;;;;;-0.76;60.76;97788.22;5113289;28;20019;-67
2022/03/14 01:12:58;;;;;;;5.20;3.55;;;;;;;-0.73;60.70;97796.00;5113052;28;20393;-66
2022/03/14 01:15:24;;;;;;;6.28;3.55;;;;;;;-0.72;60.77;97796.91;5113259;28;20027;-68
2022/03/14 01:17:50;;;;;;;5.32;2.90;;;;;;;-0.71;60.46;97798.63;5113060;28;20028;-68
2022/03/14 01:20:16;;;;;;;5.07;3.47;;;;;;;-0.75;60.91;97802.84;5112853;28;20201;-66
2022/03/14 01:22:42;;;;;;;6.35;3.33;;;;;;;-0.79;61.33;97795.84;5113207;28;20106;-69
2022/03/14 01:25:08;;;;;;;7.13;3.65;;;;;;;-0.74;61.06;97801.13;5113129;28;20361;-69
2022/03/14 01:27:34;;;;;;;5.22;3.28;;;;;;;-0.73;60.77;97801.16;5112969;28;20050;-69
2022/03/14 01:29:59;;;;;;;5.05;3.15;;;;;;;-0.74;60.94;97796.84;5112905;28;20496;-66
2022/03/14 01:32:25;;;;;;;7.05;4.50;;;;;;;-0.75;60.67;97796.81;5113127;28;20019;-66
2022/03/14 01:34:51;;;;;;;11.95;5.82;;;;;;;-0.74;60.66;97796.84;5112979;28;20060;-70
2022/03/14 01:37:18;;;;;;;8.48;4.70;;;;;;;-0.72;60.80;97802.88;5116644;28;20392;-67
2022/03/14 01:39:44;;;;;;;6.68;3.53;;;;;;;-0.73;61.03;97805.44;5116644;28;20023;-66
2022/03/14 01:42:20;;;;;;;4.70;3.20;;;;;;;-0.73;59.94;97806.28;5116551;27;20027;-68
2022/03/14 01:44:47;;;;;;;6.97;3.92;;;;;;;-0.73;59.81;97810.59;5116663;27;20374;-68
2022/03/14 01:47:16;;;;;;;7.70;4.00;;;;;;;-0.70;60.17;97811.53;5116494;28;20024;-68
2022/03/14 01:49:43;;;;;;;8.85;5.20;;;;;;;-0.73;60.52;97818.31;5116456;28;20528;-65
2022/03/14 01:52:09;;;;;;;6.65;4.63;;;;;;;-0.77;60.81;97820.78;5116346;28;20023;-65
2022/03/14 01:54:36;;;;;;;6.25;4.15;;;;;;;-0.79;61.38;97816.41;5116297;28;20024;-67
2022/03/14 01:57:02;;;;;;;8.07;3.78;;;;;;;-0.79;61.32;97818.97;5116237;28;20023;-67
2022/03/14 01:59:29;;;;;;;6.85;3.95;;;;;;;-0.81;60.50;97813.78;5116251;28;20381;-66
2022/03/14 02:01:57;;;;;;;8.63;3.60;;;;;;;-0.92;60.59;97822.91;5116266;28;20019;-68
2022/03/14 02:04:23;;;;;;;4.97;2.97;;;;;;;-0.91;60.89;97824.66;5116169;28;20051;-68
2022/03/14 02:06:52;;;;;;;7.47;3.67;;;;;;;-0.88;61.32;97822.16;5116004;28;20098;-69
2022/03/14 02:09:21;;;;;;;6.03;3.08;;;;;;;-0.89;62.30;97830.72;5116091;28;20380;-69
2022/03/14 02:12:06;;;;;;;6.75;3.25;;;;;;;-0.86;62.43;97835.06;5116000;28;20084;-67
2022/03/14 02:14:31;;;;;;;5.75;3.38;;;;;;;-0.90;62.43;97826.41;5116001;28;20034;-66
2022/03/14 02:16:57;;;;;;;5.93;3.65;;;;;;;-0.87;62.60;97838.47;5115877;28;20031;-66
2022/03/14 02:19:23;;;;;;;6.95;3.75;;;;;;;-0.85;62.63;97839.38;5115700;28;20016;-66
2022/03/14 02:21:49;;;;;;;6.57;3.40;;;;;;;-0.82;62.44;97848.03;5115672;28;20044;-69
2022/03/14 02:24:14;;;;;;;4.90;3.50;;;;;;;-0.86;62.69;97846.22;5115714;28;20380;-69
2022/03/14 02:26:42;;;;;;;7.53;3.40;;;;;;;-0.82;62.73;97848.03;5115633;28;20038;-69
2022/03/14 02:29:08;;;;;;;7.32;3.47;;;;;;;-0.84;62.32;97846.25;5115703;28;20489;-67
2022/03/14 02:31:37;;;;;;;6.47;3.50;;;;;;;-0.85;62.12;97855.66;5115535;28;20020;-66
2022/03/14 02:34:07;;;;;;;4.88;3.17;;;;;;;-0.82;62.34;97857.44;5115541;28;20130;-67
2022/03/14 02:36:37;;;;;;;4.38;2.90;;;;;;;-0.82;62.00;97867.72;5115593;28;20020;-65
2022/03/14 02:39:03;;;;;;;6.35;3.17;;;;;;;-0.89;62.20;97858.97;5115483;28;20027;-68
2022/03/14 02:41:28;;;;;;;4.20;3.13;;;;;;;-0.94;61.82;97863.97;5115458;28;20019;-66
2022/03/14 02:43:55;;;;;;;15.50;8.95;;;;;;;-0.93;61.54;97864.88;5114034;28;20026;-66
2022/03/14 02:46:21;;;;;;;8.45;4.43;;;;;;;-0.96;61.38;97865.63;5115158;28;20384;-66
2022/03/14 02:48:46;;;;;;;6.18;4.60;;;;;;;-0.93;61.33;97867.44;5115253;28;20107;-68
2022/03/14 02:51:12;;;;;;;6.30;4.00;;;;;;;-0.97;61.22;97868.19;5115234;27;20078;-67
2022/03/14 02:53:38;;;;;;;7.57;3.70;;;;;;;-0.95;61.72;97875.09;5115287;28;20042;-68
2022/03/14 02:56:04;;;;;;;7.85;3.35;;;;;;;-0.97;61.30;97881.03;5115090;28;20061;-67
2022/03/14 02:58:32;;;;;;;6.65;3.28;;;;;;;-1.02;62.15;97884.31;5115105;28;20038;-68
2022/03/14 03:01:00;;;;;;;6.45;3.15;;;;;;;-1.00;62.37;97886.06;5114994;28;20464;-68
2022/03/14 03:03:27;;;;;;;4.68;3.03;;;;;;;-1.01;62.57;97892.91;5115048;28;20084;-70
2022/03/14 03:05:53;;;;;;;5.88;3.40;;;;;;;-1.04;62.25;97883.41;5114898;28;20034;-68
2022/03/14 03:08:22;;;;;;;8.13;4.72;;;;;;;-1.13;62.17;97883.13;5114807;28;20474;-66
2022/03/14 03:10:47;;;;;;;4.22;3.25;;;;;;;-1.10;62.61;97888.34;5114739;28;20019;-70
2022/03/14 03:13:13;;;;;;;7.07;3.63;;;;;;;-1.14;62.82;97891.66;5114824;28;20370;-67
2022/03/14 03:15:39;;;;;;;5.28;3.63;;;;;;;-1.18;63.22;97888.13;5114761;28;20020;-67
2022/03/14 03:18:06;;;;;;;6.00;3.65;;;;;;;-1.14;63.63;97891.66;5114876;28;20023;-66
2022/03/14 03:20:32;;;;;;;5.40;3.45;;;;;;;-1.19;63.56;97888.06;5114339;28;20039;-67
2022/03/14 03:22:57;;;;;;;5.90;3.42;;;;;;;-1.20;63.66;97894.88;5114565;28;20373;-66
2022/03/14 03:25:23;;;;;;;4.05;2.83;;;;;;;-1.20;63.38;97894.03;5114676;28;20024;-67
2022/03/14 03:27:48;;;;;;;5.60;3.38;;;;;;;-1.24;63.48;97892.22;5114501;28;20048;-69
2022/03/14 03:30:15;;;;;;;4.60;3.17;;;;;;;-1.19;63.44;97898.34;5114510;28;20023;-67
2022/03/14 03:32:40;;;;;;;6.90;3.40;;;;;;;-1.20;63.47;97899.19;5114382;28;20027;-68
2022/03/14 03:35:06;;;;;;;6.05;3.38;;;;;;;-1.24;63.18;97900.75;5114331;28;20111;-69
2022/03/14 03:37:32;;;;;;;7.10;3.45;;;;;;;-1.25;62.85;97895.56;5114286;28;20020;-68
2022/03/14 03:39:58;;;;;;;6.45;3.55;;;;;;;-1.25;62.73;97900.72;5114277;28;20047;-69
2022/03/14 03:42:23;;;;;;;5.65;3.40;;;;;;;-1.23;62.65;97909.34;5114241;28;20032;-66
2022/03/14 03:44:49;;;;;;;6.45;3.72;;;;;;;-1.28;62.68;97912.66;5114237;28;20024;-68
2022/03/14 03:47:14;;;;;;;5.53;3.80;;;;;;;-1.25;62.69;97919.56;5114061;28;20102;-68
2022/03/14 03:49:40;;;;;;;5.47;3.70;;;;;;;-1.31;62.42;97927.09;5114218;28;20423;-67
2022/03/14 03:52:07;;;;;;;6.03;3.88;;;;;;;-1.33;62.50;97932.16;5114210;28;20024;-65
2022/03/14 03:54:33;;;;;;;7.53;4.57;;;;;;;-1.41;62.36;97931.91;5114030;28;20023;-66
2022/03/14 03:56:58;;;;;;;6.95;4.25;;;;;;;-1.56;62.61;97916.91;5113986;28;20028;-66
2022/03/14 03:59:25;;;;;;;7.20;3.88;;;;;;;-1.48;62.45;97936.84;5113367;28;20033;-67
2022/03/14 04:01:50;;;;;;;9.95;4.22;;;;;;;-1.55;62.43;97940.88;5113912;28;20542;-67
2022/03/14 04:04:16;;;;;;;8.68;4.55;;;;;;;-1.72;62.71;97937.78;5113828;28;20027;-66
2022/03/14 04:06:42;;;;;;;6.32;4.80;;;;;;;-1.93;62.87;97949.91;5113802;28;20024;-66
2022/03/14 04:09:10;;;;;;;7.57;4.20;;;;;;;-2.06;63.31;97943.50;5113801;28;20385;-66
2022/03/14 04:11:36;;;;;;;7.32;3.55;;;;;;;-2.13;63.25;97950.91;5113784;28;20495;-66
2022/03/14 04:14:03;;;;;;;5.72;3.67;;;;;;;-2.20;63.07;97954.97;5113755;28;20054;-67
2022/03/14 04:16:29;;;;;;;9.68;4.47;;;;;;;-2.32;62.84;97953.69;5113849;28;20024;-66
2022/03/14 04:18:56;;;;;;;8.10;4.28;;;;;;;-2.40;63.06;97957.69;5113829;28;20422;-66
2022/03/14 04:21:23;;;;;;;7.32;4.22;;;;;;;-2.56;63.45;97961.38;5113422;28;20106;-69
2022/03/14 04:23:49;;;;;;;6.28;4.20;;;;;;;-2.63;63.38;97965.41;5113604;28;20016;-66
2022/03/14 04:26:15;;;;;;;5.80;3.47;;;;;;;-2.66;63.11;97965.28;5113478;28;20157;-65
2022/03/14 04:28:41;;;;;;;8.00;4.18;;;;;;;-2.79;63.26;97963.97;5113511;28;20028;-68
2022/03/14 04:31:09;;;;;;;5.68;3.42;;;;;;;-2.84;63.35;97966.34;5113568;28;20054;-67
2022/03/14 04:33:35;;;;;;;7.80;3.65;;;;;;;-2.96;63.69;97961.63;5113431;28;20070;-66
2022/03/14 04:36:02;;;;;;;6.95;3.83;;;;;;;-3.00;63.64;97967.44;5113464;28;20026;-68
2022/03/14 04:38:29;;;;;;;6.70;3.95;;;;;;;-2.92;63.30;97973.72;5113589;28;20012;-67
2022/03/14 04:40:55;;;;;;;6.63;4.20;;;;;;;-2.87;63.17;97978.16;5113481;28;20028;-66
2022/03/14 04:43:21;;;;;;;7.05;4.65;;;;;;;-2.92;63.23;97983.13;5113419;28;20104;-66
2022/03/14 04:45:48;;;;;;;7.50;4.30;;;;;;;-3.05;63.72;97976.63;5113222;28;20038;-69
2022/03/14 04:48:14;;;;;;;5.25;3.70;;;;;;;-3.00;63.71;97979.38;5113418;28;20155;-67
2022/03/14 04:50:41;;;;;;;7.38;4.00;;;;;;;-3.09;63.69;97978.22;5113239;28;20024;-69
2022/03/14 04:53:07;;;;;;;4.32;3.63;;;;;;;-3.17;64.39;97975.34;5113272;28;20110;-68
2022/03/14 04:55:34;;;;;;;7.47;5.22;;;;;;;-3.14;64.84;97982.25;5113441;28;20034;-66
2022/03/14 04:58:00;;;;;;;10.32;6.47;;;;;;;-3.17;64.87;97989.81;5113444;28;20045;-68
2022/03/14 05:00:27;;;;;;;10.48;4.78;;;;;;;-3.12;64.78;97987.44;5113315;28;20076;-65
2022/03/14 05:02:58;;;;;;;7.75;4.60;;;;;;;-3.06;64.65;97993.69;5113194;28;20019;-68
2022/03/14 05:05:24;;;;;;;7.18;3.95;;;;;;;-3.05;64.66;97990.31;5113306;28;20051;-66
2022/03/14 05:07:50;;;;;;;7.07;4.00;;;;;;;-2.96;64.93;97997.47;5113183;28;20051;-66
2022/03/14 05:10:16;;;;;;;8.93;3.90;;;;;;;-2.97;64.64;98007.66;5113936;28;20020;-68
2022/03/14 05:12:41;;;;;;;7.47;4.65;;;;;;;-3.05;64.84;98008.25;5117136;28;20028;-68
2022/03/14 05:15:07;;;;;;;8.20;3.53;;;;;;;-2.96;65.08;98007.72;5116952;28;20020;-69
2022/03/14 05:17:34;;;;;;;7.10;4.22;;;;;;;-2.26;64.45;98022.28;5117141;28;20055;-67
2022/03/14 05:20:00;;;;;;;8.63;4.65;;;;;;;-1.09;62.16;98015.13;5116748;28;20031;-65
2022/03/14 05:22:25;;;;;;;7.10;3.67;;;;;;;0.21;58.03;98017.16;5116983;28;20434;-66
2022/03/14 05:24:51;;;;;;;6.82;3.47;;;;;;;1.56;53.78;98013.50;5117083;28;20026;-65
2022/03/14 05:27:17;;;;;;;8.23;3.90;;;;;;;2.69;49.85;98016.50;5116729;28;20024;-67
2022/03/14 05:29:43;;;;;;;7.22;3.78;;;;;;;3.81;47.28;98022.47;5116803;28;20023;-68
2022/03/14 05:32:08;;;;;;;6.40;3.95;;;;;;;4.92;44.40;98014.13;5115530;28;20027;-67
2022/03/14 05:34:35;;;;;;;7.65;4.10;;;;;;;5.75;41.43;98015.53;5116872;28;20026;-69
2022/03/14 05:37:01;;;;;;;6.78;3.58;;;;;;;6.60;40.21;98015.84;5116599;28;20030;-67
2022/03/14 05:39:27;;;;;;;12.02;3.42;;;;;;;7.36;39.02;98026.25;5116624;27;20106;-67
2022/03/14 05:41:53;;;;;;;7.07;3.90;;;;;;;8.00;37.37;98017.44;5116608;28;20018;-67
2022/03/14 05:44:19;;;;;;;5.60;3.58;;;;;;;8.50;36.99;98025.88;5116599;28;20098;-67
2022/03/14 05:46:45;;;;;;;7.30;4.38;;;;;;;9.10;36.38;98027.19;5116441;28;20111;-68
2022/03/14 05:49:10;;;;;;;5.00;3.92;;;;;;;9.74;34.97;98033.56;5116328;28;20111;-67
2022/03/14 05:51:37;;;;;;;4.03;3.63;;;;;;;10.08;34.56;98030.56;5116463;28;20024;-68
2022/03/14 05:54:03;;;;;;;6.95;4.03;;;;;;;10.55;32.06;98026.50;5116415;28;20024;-67
2022/03/14 05:56:29;;;;;;;5.28;4.13;;;;;;;11.15;31.29;98031.72;5116303;28;20085;-69
2022/03/14 05:58:55;;;;;;;5.68;4.00;;;;;;;11.51;30.73;98031.97;5116225;28;20016;-67
2022/03/14 06:01:22;;;;;;;8.98;4.05;;;;;;;12.06;30.15;98038.81;5116361;28;20024;-66
2022/03/14 06:03:50;;;;;;;5.40;3.55;;;;;;;12.56;29.44;98038.69;5116125;28;20073;-65
2022/03/14 06:06:15;;;;;;;5.32;3.70;;;;;;;13.36;28.90;98039.44;5115943;28;20083;-65
2022/03/14 06:08:41;;;;;;;6.38;3.92;;;;;;;13.84;27.58;98042.59;5116024;28;20023;-66
2022/03/14 06:11:08;;;;;;;5.65;4.20;;;;;;;13.96;26.13;98036.13;5116059;28;20059;-67
2022/03/14 06:13:34;;;;;;;5.90;4.78;;;;;;;13.67;26.23;98043.06;5115951;28;20114;-65
2022/03/14 06:15:59;;;;;;;7.07;4.65;;;;;;;13.66;24.24;98036.94;5115891;28;20418;-68
2022/03/14 06:18:25;;;;;;;7.63;4.72;;;;;;;13.14;23.96;98038.22;5116000;28;20023;-65
2022/03/14 06:20:51;;;;;;;7.28;5.18;;;;;;;12.71;24.72;98040.09;5115058;28;20052;-66
2022/03/14 06:23:19;;;;;;;6.32;5.05;;;;;;;12.96;24.19;98042.16;5115805;28;20027;-65
2022/03/14 06:25:44;;;;;;;8.18;5.43;;;;;;;11.83;26.00;98048.00;5115696;28;20023;-65
2022/03/14 06:28:10;;;;;;;9.18;5.97;;;;;;;10.11;27.61;98058.41;5115879;28;20027;-69
2022/03/14 06:30:36;;;;;;;7.65;5.55;;;;;;;9.11;29.56;98054.19;5115700;28;20020;-65
2022/03/14 06:33:01;;;;;;;7.47;4.60;;;;;;;9.21;30.11;98063.66;5115761;28;20492;-67
2022/03/14 06:35:28;;;;;;;9.57;5.05;;;;;;;9.07;29.77;98065.53;5115573;28;20084;-66
2022/03/14 06:37:53;;;;;;;7.22;5.05;;;;;;;8.32;30.96;98076.38;5115465;28;20024;-67
2022/03/14 06:40:21;;;;;;;10.10;5.25;;;;;;;7.19;32.76;98068.78;5115452;28;20043;-65
2022/03/14 06:42:50;;;;;;;6.93;5.28;;;;;;;6.41;34.23;98071.25;5115457;28;20033;-66
2022/03/14 06:45:22;;;;;;;8.05;5.00;;;;;;;6.36;34.72;98082.50;5115596;28;20026;-66
2022/03/14 06:47:48;;;;;;;8.65;5.45;;;;;;;6.07;35.54;98086.72;5115348;28;20031;-68
2022/03/14 06:50:14;;;;;;;7.68;5.45;;;;;;;5.67;35.42;98084.75;5114102;28;20012;-67
2022/03/14 06:52:39;;;;;;;8.23;5.03;;;;;;;5.74;35.84;98083.03;5115194;28;20027;-65
2022/03/14 06:55:05;;;;;;;8.20;5.57;;;;;;;5.79;36.00;98094.34;5115306;28;20498;-66
2022/03/14 06:57:31;;;;;;;8.80;4.97;;;;;;;5.86;35.62;98092.63;5115153;28;20024;-69
2022/03/14 06:59:57;;;;;;;10.38;5.07;;;;;;;5.87;36.20;98091.78;5115060;27;20021;-67
2022/03/14 07:02:27;;;;;;;7.20;4.68;;;;;;;5.92;34.75;98098.75;5114975;28;20068;-68
2022/03/14 07:04:53;;;;;;;8.32;5.00;;;;;;;6.27;34.27;98102.41;5114968;28;20019;-66
2022/03/14 07:07:19;;;;;;;6.32;4.50;;;;;;;7.16;34.41;98101.75;5114817;28;20051;-69
2022/03/14 07:09:44;;;;;;;8.38;5.03;;;;;;;7.49;32.15;98104.38;5114943;28;20019;-68
2022/03/14 07:12:11;;;;;;;6.88;5.15;;;;;;;7.31;32.32;98096.56;5114905;28;20084;-66
2022/03/14 07:14:36;;;;;;;6.80;4.45;;;;;;;7.03;32.63;98099.16;5114731;28;20477;-70
2022/03/14 07:17:03;;;;;;;7.32;4.68;;;;;;;7.18;32.98;98108.72;5114634;28;20020;-66
2022/03/14 07:19:28;;;;;;;6.18;5.20;;;;;;;7.14;32.14;98106.09;5114791;28;20111;-65
2022/03/14 07:21:54;;;;;;;6.50;5.10;;;;;;;6.92;32.95;98113.84;5114511;28;20469;-68
2022/03/14 07:24:19;;;;;;;8.02;5.40;;;;;;;6.92;32.92;98116.47;5114616;28;20031;-66
2022/03/14 07:26:45;;;;;;;10.38;4.78;;;;;;;6.73;32.13;98118.16;5114516;28;20031;-67
2022/03/14 07:29:11;;;;;;;9.43;4.57;;;;;;;6.61;33.42;98106.84;5114593;28;20069;-66
2022/03/14 07:31:38;;;;;;;7.30;5.03;;;;;;;6.69;34.38;98122.50;5114497;28;20489;-66
2022/03/14 07:34:04;;;;;;;5.63;4.10;;;;;;;6.95;31.38;98125.16;5113566;28;20093;-67
2022/03/14 07:36:30;;;;;;;7.32;4.75;;;;;;;6.90;31.46;98126.88;5114333;28;20055;-68
2022/03/14 07:38:56;;;;;;;6.30;4.60;;;;;;;6.92;34.37;98124.25;5114344;28;20078;-70
2022/03/14 07:41:23;;;;;;;7.85;5.75;;;;;;;7.33;32.22;98133.00;5114418;28;20019;-67
2022/03/14 07:43:48;;;;;;;6.05;4.53;;;;;;;7.42;30.19;98125.22;5114270;28;20019;-66
2022/03/14 07:46:14;;;;;;;6.82;4.90;;;;;;;7.61;31.43;98138.22;5114029;28;20019;-70
2022/03/14 07:48:40;;;;;;;7.20;5.28;;;;;;;7.75;32.11;98134.72;5114078;28;20238;-69
2022/03/14 07:51:08;;;;;;;9.55;5.25;;;;;;;7.85;32.15;98136.44;5114099;28;20034;-66
2022/03/14 07:53:34;;;;;;;7.03;4.88;;;;;;;7.78;28.80;98137.31;5114131;28;20020;-68
2022/03/14 07:55:59;;;;;;;7.00;4.55;;;;;;;7.58;29.93;98127.78;5114061;27;20042;-67
2022/03/14 07:58:25;;;;;;;6.97;4.88;;;;;;;7.93;31.09;98133.84;5113885;28;20492;-67
2022/03/14 08:00:51;;;;;;;8.43;5.28;;;;;;;8.43;30.79;98139.78;5113998;28;20023;-69
2022/03/14 08:03:17;;;;;;;6.00;4.72;;;;;;;8.22;29.16;98138.97;5113975;28;20027;-68
2022/03/14 08:05:45;;;;;;;6.15;4.75;;;;;;;7.78;29.17;98132.13;5113920;28;20541;-67
2022/03/14 08:08:10;;;;;;;5.63;4.38;;;;;;;7.26;29.38;98131.28;5113959;28;20390;-70
2022/03/14 08:10:41;;;;;;;6.15;4.47;;;;;;;7.00;30.45;98132.09;5113835;28;20011;-69
2022/03/14 08:13:07;;;;;;;7.57;4.80;;;;;;;6.52;31.39;98136.31;5113778;28;20537;-68
2022/03/14 08:15:35;;;;;;;7.15;4.95;;;;;;;5.95;32.72;98134.25;5113590;28;20023;-69
2022/03/14 08:18:04;;;;;;;6.43;4.53;;;;;;;6.14;32.65;98144.81;5113780;28;20050;-64
2022/03/14 08:20:30;;;;;;;6.90;5.10;;;;;;;6.13;33.26;98151.72;5113612;28;20474;-65
2022/03/14 08:22:58;;;;;;;7.13;4.78;;;;;;;6.09;32.70;98143.91;5113662;28;20103;-68
2022/03/14 08:25:25;;;;;;;8.07;5.10;;;;;;;6.37;34.16;98149.22;5113570;28;20020;-68
2022/03/14 08:27:51;;;;;;;9.85;4.90;;;;;;;6.35;32.18;98143.16;5113638;28;20514;-69
2022/03/14 08:30:20;;;;;;;6.25;4.97;;;;;;;6.64;32.08;98151.09;5113477;28;20028;-66
2022/03/14 08:32:46;;;;;;;7.13;4.20;;;;;;;6.83;31.96;98148.53;5113600;28;20031;-68
2022/03/14 08:35:12;;;;;;;6.68;4.10;;;;;;;6.30;31.75;98140.53;5113576;28;20561;-67
2022/03/14 08:37:43;;;;;;;5.93;4.63;;;;;;;6.35;32.31;98150.97;5113459;28;20106;-68
2022/03/14 08:40:11;;;;;;;7.70;4.88;;;;;;;5.86;33.41;98158.44;5113480;28;20111;-67
2022/03/14 08:42:37;;;;;;;9.40;5.15;;;;;;;5.47;34.55;98158.16;5113411;28;20470;-69
2022/03/14 08:45:05;;;;;;;7.57;4.63;;;;;;;5.37;34.71;98145.94;5115556;28;20473;-66
2022/03/14 08:47:31;;;;;;;6.78;4.50;;;;;;;5.62;34.13;98166.91;5117641;28;20028;-66
2022/03/14 08:49:56;;;;;;;6.63;4.72;;;;;;;5.44;34.61;98164.19;5117652;28;20357;-70
2022/03/14 08:52:22;;;;;;;6.07;4.30;;;;;;;5.44;35.00;98165.91;5117685;28;20076;-67
2022/03/14 08:54:47;;;;;;;9.82;5.07;;;;;;;5.46;34.74;98158.13;5117557;28;20028;-70
2022/03/14 08:57:16;;;;;;;6.78;4.72;;;;;;;5.20;34.88;98161.38;5117628;28;20019;-66
2022/03/14 08:59:45;;;;;;;7.13;4.57;;;;;;;5.26;34.60;98164.00;5117266;28;20027;-66
2022/03/14 09:02:11;;;;;;;8.55;4.55;;;;;;;5.24;35.96;98163.16;5117513;28;20107;-67
2022/03/14 09:04:37;;;;;;;5.43;3.65;;;;;;;5.09;35.74;98169.06;5117328;28;20469;-70
2022/03/14 09:07:03;;;;;;;6.85;4.22;;;;;;;4.97;35.24;98164.63;5117219;28;20028;-65
2022/03/14 09:09:28;;;;;;;9.35;4.03;;;;;;;4.86;34.89;98165.38;5117215;28;20469;-68
2022/03/14 09:11:54;;;;;;;7.63;4.53;;;;;;;4.89;35.37;98170.59;5117200;28;20023;-67
2022/03/14 09:14:20;;;;;;;5.55;3.47;;;;;;;5.17;34.93;98176.06;5117161;27;20031;-69
2022/03/14 09:16:47;;;;;;;5.13;3.80;;;;;;;5.56;35.90;98165.16;5117024;28;20575;-69
2022/03/14 09:19:14;;;;;;;4.53;3.55;;;;;;;6.15;36.23;98165.59;5117008;28;20019;-68
2022/03/14 09:21:39;;;;;;;5.28;3.33;;;;;;;6.64;33.18;98165.81;5116751;28;20039;-66
2022/03/14 09:24:05;;;;;;;4.75;3.55;;;;;;;6.77;32.45;98157.19;5116927;28;20028;-68
2022/03/14 09:26:32;;;;;;;4.30;3.53;;;;;;;6.63;31.88;98169.28;5116884;28;20043;-68
2022/03/14 09:28:59;;;;;;;5.68;3.75;;;;;;;6.17;31.67;98168.22;5116891;28;20020;-66
2022/03/14 09:31:25;;;;;;;4.22;3.47;;;;;;;5.68;33.46;98153.97;5116826;28;20031;-68
2022/03/14 09:33:51;;;;;;;5.07;3.40;;;;;;;5.63;33.75;98160.88;5116782;28;20024;-68
2022/03/14 09:36:16;;;;;;;5.82;4.00;;;;;;;5.61;33.19;98167.78;5116653;28;20385;-65
2022/03/14 09:38:43;;;;;;;4.18;3.58;;;;;;;5.65;34.30;98159.16;5116599;28;20095;-67
2022/03/14 09:41:09;;;;;;;5.10;3.67;;;;;;;5.61;33.10;98167.78;5116507;28;20473;-68
2022/03/14 09:43:39;;;;;;;7.20;4.13;;;;;;;5.67;33.01;98160.94;5116590;28;20098;-66
2022/03/14 09:46:09;;;;;;;5.68;3.75;;;;;;;5.89;33.10;98166.25;5116470;27;20023;-66
2022/03/14 09:48:40;;;;;;;6.50;4.00;;;;;;;5.98;33.78;98174.97;5116522;28;20389;-67
2022/03/14 09:51:07;;;;;;;4.68;3.50;;;;;;;5.77;32.55;98163.56;5116588;28;20019;-67
2022/03/14 09:53:34;;;;;;;4.43;3.42;;;;;;;5.52;34.75;98177.25;5116374;28;20024;-68
2022/03/14 09:56:00;;;;;;;6.13;3.83;;;;;;;5.75;35.98;98176.53;5115321;28;20380;-68
2022/03/14 09:58:26;;;;;;;6.32;4.15;;;;;;;6.21;33.62;98176.88;5116376;28;20076;-68
2022/03/14 10:00:53;;;;;;;6.28;3.90;;;;;;;6.09;32.36;98181.16;5116255;28;20023;-68
2022/03/14 10:03:21;;;;;;;4.07;3.15;;;;;;;6.17;33.35;98166.47;5116224;28;20047;-69
2022/03/14 10:05:47;;;;;;;7.97;4.20;;;;;;;6.09;33.01;98165.56;5116065;28;20092;-68
2022/03/14 10:08:14;;;;;;;3.63;3.03;;;;;;;6.09;32.36;98173.34;5116134;28;20069;-68
2022/03/14 10:10:40;;;;;;;5.65;3.53;;;;;;;6.10;32.25;98166.41;5116011;28;20095;-68
2022/03/14 10:13:06;;;;;;;5.53;3.88;;;;;;;5.82;32.06;98177.47;5115926;28;20038;-65
2022/03/14 10:15:37;;;;;;;4.15;3.33;;;;;;;5.71;32.75;98173.91;5116067;28;20480;-69
2022/03/14 10:18:15;;;;;;;5.07;3.45;;;;;;;5.87;32.90;98159.31;5116067;28;20083;-66
2022/03/14 10:20:57;;;;;;;4.18;3.13;;;;;;;6.07;31.51;98165.56;5115655;28;20103;-66
2022/03/14 10:23:43;;;;;;;5.47;3.28;;;;;;;6.30;33.03;98171.75;5115789;28;20028;-67
2022/03/14 10:26:15;;;;;;;4.95;3.08;;;;;;;6.26;33.26;98175.19;5115868;27;20028;-67
2022/03/14 10:28:41;;;;;;;4.35;3.05;;;;;;;6.18;33.33;98167.34;5115609;28;20023;-66
2022/03/14 10:31:06;;;;;;;6.75;3.63;;;;;;;6.37;32.70;98160.50;5115744;28;20015;-67
2022/03/14 10:33:33;;;;;;;5.07;3.08;;;;;;;6.25;31.68;98158.72;5115782;28;20103;-66
2022/03/14 10:36:00;;;;;;;5.10;3.13;;;;;;;6.33;33.51;98166.56;5115529;28;20023;-67
2022/03/14 10:38:26;;;;;;;4.78;3.20;;;;;;;6.37;32.13;98165.69;5115581;28;20031;-66
2022/03/14 10:40:56;;;;;;;5.00;3.63;;;;;;;6.03;32.80;98158.56;5115537;28;20023;-66
2022/03/14 10:43:31;;;;;;;4.95;3.45;;;;;;;5.55;33.30;98172.09;5115455;28;20106;-65
2022/03/14 10:45:57;;;;;;;5.15;3.88;;;;;;;5.73;33.75;98157.50;5115357;28;20039;-68
2022/03/14 10:48:36;;;;;;;4.60;3.38;;;;;;;5.70;32.90;98160.06;5115416;28;20031;-66
2022/03/14 10:51:07;;;;;;;5.38;3.80;;;;;;;5.88;33.94;98143.75;5115244;28;20028;-65
2022/03/14 10:53:34;;;;;;;;;;;;;;;6.24;33.09;98151.78;5115621;28;20496;-66
2022/03/14 10:56:00;;;;;;;4.30;3.00;;;;;;;6.50;31.89;98144.97;5115193;28;20361;-68
2022/03/14 10:58:33;;;;;;;4.55;3.17;;;;;;;6.74;30.98;98143.31;5115132;28;20381;-68
2022/03/14 11:01:04;;;;;;;3.47;3.13;;;;;;;6.80;33.52;98143.31;5115097;28;20036;-67
2022/03/14 11:03:40;;;;;;;4.10;3.40;;;;;;;6.91;33.21;98146.84;5115045;27;20043;-65
2022/03/14 11:06:11;;;;;;;4.10;3.42;;;;;;;6.81;31.72;98151.13;5115076;28;20023;-68
2022/03/14 11:08:37;;;;;;;4.22;3.35;;;;;;;6.67;33.13;98145.91;5114894;28;20020;-67
2022/03/14 11:11:12;;;;;;;5.10;3.78;;;;;;;6.72;32.87;98145.91;5114872;28;20019;-67
2022/03/14 11:13:43;;;;;;;5.45;3.67;;;;;;;6.87;31.81;98154.63;5115272;28;20030;-66
2022/03/14 11:16:28;;;;;;;7.40;3.38;;;;;;;6.78;30.85;98137.25;5114784;28;20381;-66
2022/03/14 11:18:54;;;;;;;4.43;3.42;;;;;;;6.69;31.98;98141.56;5114699;28;20030;-69
2022/03/14 11:21:24;;;;;;;4.15;3.40;;;;;;;6.72;32.00;98138.13;5114486;28;20048;-69
2022/03/14 11:23:52;;;;;;;5.93;3.33;;;;;;;6.87;32.40;98144.22;5114729;28;20015;-66
2022/03/14 11:26:20;;;;;;;5.30;3.58;;;;;;;6.53;31.61;98138.03;5114640;28;20550;-65
2022/03/14 11:28:49;;;;;;;6.07;3.53;;;;;;;6.50;32.05;98137.16;5114451;28;20023;-66
2022/03/14 11:31:21;;;;;;;4.85;3.53;;;;;;;5.99;32.24;98132.56;5114478;28;20104;-67
2022/03/14 11:33:48;;;;;;;6.43;4.32;;;;;;;5.91;33.65;98128.19;5114616;28;20111;-68
2022/03/14 11:36:18;;;;;;;4.45;3.55;;;;;;;5.89;33.81;98136.81;5114557;28;20032;-68